createdAt,value
2018-11-22T00:00:33.306Z,0
2018-11-22T00:01:35.319Z,0
2018-11-22T00:02:37.622Z,0
2018-11-22T00:03:39.629Z,0
2018-11-22T00:04:41.640Z,0
2018-11-22T00:05:43.654Z,0
2018-11-22T00:06:45.665Z,0
2018-11-22T00:07:47.670Z,0
2018-11-22T00:08:49.679Z,0
2018-11-22T00:09:51.684Z,0
2018-11-22T00:10:53.692Z,0
2018-11-22T00:11:55.710Z,0
2018-11-22T00:12:57.722Z,0
2018-11-22T00:13:59.724Z,0
2018-11-22T00:15:01.750Z,0
2018-11-22T00:16:03.756Z,0
2018-11-22T00:17:05.765Z,0
2018-11-22T00:18:07.784Z,0
2018-11-22T00:19:09.778Z,0
2018-11-22T00:20:12.074Z,0
2018-11-22T00:21:14.087Z,0
2018-11-22T00:22:16.100Z,0
2018-11-22T00:23:18.486Z,0
2018-11-22T00:24:20.503Z,0
2018-11-22T00:25:23.089Z,0
2018-11-22T00:26:25.095Z,0
2018-11-22T00:27:27.502Z,0
2018-11-22T00:28:29.507Z,0
2018-11-22T00:29:31.516Z,0
2018-11-22T00:30:33.809Z,0
2018-11-22T00:31:35.833Z,0
2018-11-22T00:32:37.836Z,0
2018-11-22T00:33:39.849Z,0
2018-11-22T00:34:41.858Z,0
2018-11-22T00:35:43.861Z,0
2018-11-22T00:36:45.879Z,0
2018-11-22T00:37:47.894Z,0
2018-11-22T00:38:49.896Z,0
2018-11-22T00:39:51.912Z,0
2018-11-22T00:40:54.228Z,0
2018-11-22T00:41:56.546Z,0
2018-11-22T00:42:58.950Z,0
2018-11-22T00:44:01.260Z,0
2018-11-22T00:45:03.837Z,0
2018-11-22T00:46:05.845Z,0
2018-11-22T00:47:07.854Z,0
2018-11-22T00:48:09.876Z,0
2018-11-22T00:49:11.885Z,0
2018-11-22T00:50:14.279Z,0
2018-11-22T00:51:16.295Z,0
2018-11-22T00:52:18.296Z,0
2018-11-22T00:53:20.313Z,0
2018-11-22T00:54:22.323Z,0
2018-11-22T00:55:24.341Z,0
2018-11-22T00:56:26.620Z,0
2018-11-22T00:57:28.634Z,0
2018-11-22T00:58:30.642Z,0
2018-11-22T00:59:32.650Z,0
2018-11-22T01:00:34.673Z,0
2018-11-22T01:01:36.962Z,0
2018-11-22T01:02:38.972Z,0
2018-11-22T01:03:40.986Z,0
2018-11-22T01:04:43.007Z,0
2018-11-22T01:05:45.017Z,0
2018-11-22T01:06:47.313Z,0
2018-11-22T01:07:49.322Z,0
2018-11-22T01:08:51.317Z,0
2018-11-22T01:09:53.334Z,0
2018-11-22T01:10:55.732Z,0
2018-11-22T01:11:57.738Z,0
2018-11-22T01:12:59.753Z,0
2018-11-22T01:14:02.160Z,0
2018-11-22T01:15:04.171Z,0
2018-11-22T01:16:06.188Z,0
2018-11-22T01:17:08.200Z,0
2018-11-22T01:18:10.593Z,0
2018-11-22T01:19:12.888Z,0
2018-11-22T01:20:14.902Z,0
2018-11-22T01:21:16.901Z,0
2018-11-22T01:22:18.910Z,0
2018-11-22T01:23:20.927Z,0
2018-11-22T01:24:22.932Z,0
2018-11-22T01:25:24.954Z,0
2018-11-22T01:26:26.967Z,0
2018-11-22T01:27:28.974Z,0
2018-11-22T01:28:31.369Z,0
2018-11-22T01:29:33.391Z,0
2018-11-22T01:30:35.394Z,0
2018-11-22T01:31:37.407Z,0
2018-11-22T01:32:39.426Z,0
2018-11-22T01:33:41.427Z,0
2018-11-22T01:34:43.741Z,0
2018-11-22T01:35:46.056Z,0
2018-11-22T01:36:48.067Z,0
2018-11-22T01:37:50.068Z,0
2018-11-22T01:38:52.088Z,0
2018-11-22T01:39:54.403Z,0
2018-11-22T01:40:56.416Z,0
2018-11-22T01:41:58.781Z,0
2018-11-22T01:43:00.790Z,0
2018-11-22T01:44:02.803Z,0
2018-11-22T01:45:04.821Z,0
2018-11-22T01:46:06.838Z,0
2018-11-22T01:47:08.843Z,0
2018-11-22T01:48:10.849Z,0
2018-11-22T01:49:13.141Z,0
2018-11-22T01:50:15.154Z,0
2018-11-22T01:51:17.168Z,0
2018-11-22T01:52:19.180Z,0
2018-11-22T01:53:21.191Z,0
2018-11-22T01:54:23.206Z,0
2018-11-22T01:55:25.214Z,0
2018-11-22T01:56:27.225Z,0
2018-11-22T01:57:29.243Z,0
2018-11-22T01:58:31.244Z,0
2018-11-22T01:59:33.548Z,0
2018-11-22T02:00:35.557Z,0
2018-11-22T02:01:37.577Z,0
2018-11-22T02:02:39.592Z,0
2018-11-22T02:03:41.877Z,0
2018-11-22T02:04:43.893Z,0
2018-11-22T02:05:45.910Z,0
2018-11-22T02:06:48.194Z,0
2018-11-22T02:07:50.508Z,0
2018-11-22T02:08:52.518Z,0
2018-11-22T02:09:54.529Z,0
2018-11-22T02:10:56.526Z,0
2018-11-22T02:11:58.544Z,0
2018-11-22T02:13:00.558Z,0
2018-11-22T02:14:03.444Z,0
2018-11-22T02:15:06.041Z,0
2018-11-22T02:16:08.046Z,0
2018-11-22T02:17:10.055Z,0
2018-11-22T02:18:12.070Z,0
2018-11-22T02:19:14.083Z,0
2018-11-22T02:20:16.090Z,0
2018-11-22T02:21:18.678Z,0
2018-11-22T02:22:20.682Z,0
2018-11-22T02:23:22.698Z,0
2018-11-22T02:24:24.713Z,0
2018-11-22T02:25:26.727Z,0
2018-11-22T02:26:28.737Z,0
2018-11-22T02:27:30.758Z,0
2018-11-22T02:28:32.765Z,0
2018-11-22T02:29:34.777Z,0
2018-11-22T02:30:36.797Z,0
2018-11-22T02:31:39.092Z,0
2018-11-22T02:32:41.104Z,0
2018-11-22T02:33:43.394Z,0
2018-11-22T02:34:45.696Z,0
2018-11-22T02:35:47.699Z,0
2018-11-22T02:36:49.712Z,0
2018-11-22T02:37:51.725Z,0
2018-11-22T02:38:54.029Z,0
2018-11-22T02:39:56.049Z,0
2018-11-22T02:40:58.343Z,0
2018-11-22T02:42:00.456Z,0
2018-11-22T02:43:02.468Z,0
2018-11-22T02:44:04.782Z,0
2018-11-22T02:45:07.175Z,0
2018-11-22T02:46:09.471Z,0
2018-11-22T02:47:12.062Z,0
2018-11-22T02:48:14.063Z,0
2018-11-22T02:49:16.084Z,0
2018-11-22T02:50:18.481Z,0
2018-11-22T02:51:20.496Z,0
2018-11-22T02:52:22.512Z,0
2018-11-22T02:53:24.816Z,0
2018-11-22T02:54:27.110Z,0
2018-11-22T02:55:29.409Z,0
2018-11-22T02:56:31.420Z,0
2018-11-22T02:57:33.813Z,0
2018-11-22T02:58:36.125Z,0
2018-11-22T02:59:38.143Z,0
2018-11-22T03:00:40.146Z,0
2018-11-22T03:01:42.162Z,0
2018-11-22T03:02:44.463Z,0
2018-11-22T03:03:46.747Z,0
2018-11-22T03:04:48.769Z,0
2018-11-22T03:05:50.780Z,0
2018-11-22T03:06:53.076Z,0
2018-11-22T03:07:55.081Z,0
2018-11-22T03:08:57.674Z,0
2018-11-22T03:09:59.966Z,0
2018-11-22T03:11:02.289Z,0
2018-11-22T03:12:04.303Z,0
2018-11-22T03:13:06.305Z,0
2018-11-22T03:14:08.708Z,0
2018-11-22T03:15:10.720Z,0
2018-11-22T03:16:12.729Z,0
2018-11-22T03:17:15.016Z,0
2018-11-22T03:18:17.028Z,0
2018-11-22T03:19:19.035Z,0
2018-11-22T03:20:21.048Z,0
2018-11-22T03:21:23.345Z,0
2018-11-22T03:22:25.364Z,0
2018-11-22T03:23:27.371Z,0
2018-11-22T03:24:29.379Z,0
2018-11-22T03:25:31.395Z,0
2018-11-22T03:26:33.796Z,0
2018-11-22T03:27:36.090Z,0
2018-11-22T03:28:38.105Z,0
2018-11-22T03:29:40.118Z,0
2018-11-22T03:30:42.405Z,0
2018-11-22T03:31:44.417Z,0
2018-11-22T03:32:47.385Z,0
2018-11-22T03:33:49.966Z,0
2018-11-22T03:34:51.977Z,0
2018-11-22T03:35:53.988Z,0
2018-11-22T03:36:55.994Z,0
2018-11-22T03:37:58.015Z,0
2018-11-22T03:39:00.309Z,0
2018-11-22T03:40:02.718Z,0
2018-11-22T03:41:05.113Z,0
2018-11-22T03:42:07.418Z,0
2018-11-22T03:43:09.427Z,0
2018-11-22T03:44:11.436Z,0
2018-11-22T03:45:13.453Z,0
2018-11-22T03:46:15.737Z,0
2018-11-22T03:47:17.759Z,0
2018-11-22T03:48:19.770Z,0
2018-11-22T03:49:21.783Z,0
2018-11-22T03:50:23.785Z,0
2018-11-22T03:51:25.803Z,0
2018-11-22T03:52:27.813Z,0
2018-11-22T03:53:29.868Z,0
2018-11-22T03:54:31.890Z,0
2018-11-22T03:55:34.228Z,0
2018-11-22T03:56:36.242Z,0
2018-11-22T03:57:38.528Z,0
2018-11-22T03:58:40.543Z,0
2018-11-22T03:59:42.563Z,0
2018-11-22T04:00:44.576Z,0
2018-11-22T04:01:46.595Z,0
2018-11-22T04:02:48.610Z,0
2018-11-22T04:03:51.003Z,0
2018-11-22T04:04:53.296Z,0
2018-11-22T04:05:55.697Z,0
2018-11-22T04:06:57.694Z,0
2018-11-22T04:08:00.017Z,0
2018-11-22T04:09:02.031Z,0
2018-11-22T04:10:04.039Z,0
2018-11-22T04:11:06.731Z,0
2018-11-22T04:12:08.739Z,0
2018-11-22T04:13:10.750Z,0
2018-11-22T04:14:13.333Z,0
2018-11-22T04:15:15.668Z,0
2018-11-22T04:16:18.247Z,0
2018-11-22T04:17:20.258Z,0
2018-11-22T04:18:22.276Z,0
2018-11-22T04:19:24.276Z,0
2018-11-22T04:20:26.291Z,0
2018-11-22T04:21:28.303Z,0
2018-11-22T04:22:30.700Z,0
2018-11-22T04:23:33.000Z,0
2018-11-22T04:24:35.699Z,0
2018-11-22T04:25:38.093Z,0
2018-11-22T04:26:40.391Z,0
2018-11-22T04:27:42.416Z,0
2018-11-22T04:28:45.010Z,0
2018-11-22T04:29:47.323Z,0
2018-11-22T04:30:49.334Z,0
2018-11-22T04:31:51.635Z,0
2018-11-22T04:32:53.925Z,0
2018-11-22T04:33:55.941Z,0
2018-11-22T04:34:57.957Z,0
2018-11-22T04:36:00.254Z,0
2018-11-22T04:37:02.651Z,0
2018-11-22T04:38:04.664Z,0
2018-11-22T04:39:06.676Z,0
2018-11-22T04:40:08.962Z,0
2018-11-22T04:41:11.360Z,0
2018-11-22T04:42:14.039Z,0
2018-11-22T04:43:16.046Z,0
2018-11-22T04:44:18.453Z,0
2018-11-22T04:45:20.464Z,0
2018-11-22T04:46:22.479Z,0
2018-11-22T04:47:24.485Z,0
2018-11-22T04:48:26.893Z,0
2018-11-22T04:49:28.901Z,0
2018-11-22T04:50:31.299Z,0
2018-11-22T04:51:33.315Z,0
2018-11-22T04:52:35.312Z,0
2018-11-22T04:53:37.332Z,0
2018-11-22T04:54:39.344Z,0
2018-11-22T04:55:41.648Z,0
2018-11-22T04:56:43.649Z,0
2018-11-22T04:57:45.665Z,0
2018-11-22T04:58:47.676Z,0
2018-11-22T04:59:49.689Z,0
2018-11-22T05:00:51.711Z,0
2018-11-22T05:01:53.719Z,0
2018-11-22T05:02:56.024Z,0
2018-11-22T05:03:58.042Z,0
2018-11-22T05:05:00.059Z,0
2018-11-22T05:06:02.400Z,0
2018-11-22T05:07:04.393Z,0
2018-11-22T05:08:06.394Z,0
2018-11-22T05:09:08.408Z,0
2018-11-22T05:10:11.110Z,0
2018-11-22T05:11:13.428Z,0
2018-11-22T05:12:15.427Z,0
2018-11-22T05:13:17.455Z,0
2018-11-22T05:14:19.467Z,0
2018-11-22T05:15:21.475Z,0
2018-11-22T05:16:23.491Z,0
2018-11-22T05:17:25.499Z,0
2018-11-22T05:18:27.805Z,0
2018-11-22T05:19:29.817Z,0
2018-11-22T05:20:32.136Z,0
2018-11-22T05:21:34.133Z,0
2018-11-22T05:22:36.149Z,0
2018-11-22T05:23:38.161Z,0
2018-11-22T05:24:40.168Z,0
2018-11-22T05:25:42.478Z,0
2018-11-22T05:26:44.786Z,0
2018-11-22T05:27:46.802Z,0
2018-11-22T05:28:48.809Z,0
2018-11-22T05:29:50.832Z,0
2018-11-22T05:30:52.838Z,0
2018-11-22T05:31:54.848Z,0
2018-11-22T05:32:56.856Z,0
2018-11-22T05:33:58.858Z,0
2018-11-22T05:35:01.264Z,0
2018-11-22T05:36:03.584Z,0
2018-11-22T05:37:05.589Z,0
2018-11-22T05:38:07.986Z,0
2018-11-22T05:39:10.003Z,0
2018-11-22T05:40:12.018Z,0
2018-11-22T05:41:14.038Z,0
2018-11-22T05:42:16.050Z,0
2018-11-22T05:43:18.054Z,0
2018-11-22T05:44:20.064Z,0
2018-11-22T05:45:22.088Z,0
2018-11-22T05:46:24.087Z,0
2018-11-22T05:47:26.097Z,0
2018-11-22T05:48:28.111Z,0
2018-11-22T05:49:30.119Z,0
2018-11-22T05:50:32.119Z,0
2018-11-22T05:51:34.417Z,0
2018-11-22T05:52:36.427Z,0
2018-11-22T05:53:38.443Z,0
2018-11-22T05:54:40.441Z,0
2018-11-22T05:55:42.458Z,0
2018-11-22T05:56:44.472Z,0
2018-11-22T05:57:46.472Z,0
2018-11-22T05:58:48.493Z,0
2018-11-22T05:59:50.497Z,0
2018-11-22T06:00:52.511Z,0
2018-11-22T06:01:54.804Z,0
2018-11-22T06:02:56.824Z,0
2018-11-22T06:03:58.830Z,0
2018-11-22T06:05:00.842Z,0
2018-11-22T06:06:02.854Z,0
2018-11-22T06:07:05.043Z,0
2018-11-22T06:08:07.166Z,0
2018-11-22T06:09:09.175Z,0
2018-11-22T06:10:11.181Z,0
2018-11-22T06:11:13.193Z,0
2018-11-22T06:12:15.492Z,0
2018-11-22T06:13:17.887Z,0
2018-11-22T06:14:19.901Z,0
2018-11-22T06:15:21.911Z,0
2018-11-22T06:16:23.917Z,0
2018-11-22T06:17:25.933Z,0
2018-11-22T06:18:27.951Z,0
2018-11-22T06:19:30.238Z,0
2018-11-22T06:20:32.253Z,0
2018-11-22T06:21:34.262Z,0
2018-11-22T06:22:36.271Z,0
2018-11-22T06:23:38.292Z,0
2018-11-22T06:24:40.302Z,0
2018-11-22T06:25:42.699Z,0
2018-11-22T06:26:44.707Z,0
2018-11-22T06:27:46.717Z,0
2018-11-22T06:28:49.181Z,0
2018-11-22T06:29:51.520Z,0
2018-11-22T06:30:53.522Z,0
2018-11-22T06:31:55.541Z,0
2018-11-22T06:32:57.549Z,0
2018-11-22T06:33:59.556Z,0
2018-11-22T06:35:02.448Z,0
2018-11-22T06:36:04.471Z,0
2018-11-22T06:37:06.480Z,0
2018-11-22T06:38:08.492Z,0
2018-11-22T06:39:10.501Z,0
2018-11-22T06:40:12.892Z,0
2018-11-22T06:41:14.908Z,0
2018-11-22T06:42:17.302Z,0
2018-11-22T06:43:19.308Z,0
2018-11-22T06:44:21.314Z,0
2018-11-22T06:45:23.868Z,0
2018-11-22T06:46:25.346Z,0
2018-11-22T06:47:27.363Z,0
2018-11-22T06:48:29.376Z,0
2018-11-22T06:49:31.382Z,0
2018-11-22T06:50:33.778Z,0
2018-11-22T06:51:35.793Z,0
2018-11-22T06:52:37.791Z,0
2018-11-22T06:53:39.800Z,0
2018-11-22T06:54:41.810Z,0
2018-11-22T06:55:44.203Z,0
2018-11-22T06:56:46.223Z,0
2018-11-22T06:57:48.456Z,0
2018-11-22T06:58:50.452Z,1
2018-11-22T06:59:52.454Z,1
2018-11-22T07:00:54.491Z,1
2018-11-22T07:01:56.795Z,1
2018-11-22T07:02:58.805Z,1
2018-11-22T07:04:01.508Z,1
2018-11-22T07:05:03.563Z,1
2018-11-22T07:06:06.177Z,1
2018-11-22T07:07:08.481Z,1
2018-11-22T07:08:10.772Z,1
2018-11-22T07:09:12.789Z,1
2018-11-22T07:10:14.796Z,1
2018-11-22T07:11:16.805Z,1
2018-11-22T07:12:18.815Z,1
2018-11-22T07:13:20.814Z,1
2018-11-22T07:14:23.215Z,1
2018-11-22T07:15:25.225Z,1
2018-11-22T07:16:27.234Z,2
2018-11-22T07:17:29.241Z,2
2018-11-22T07:18:31.257Z,2
2018-11-22T07:19:33.270Z,2
2018-11-22T07:20:35.287Z,2
2018-11-22T07:21:37.304Z,2
2018-11-22T07:22:39.306Z,2
2018-11-22T07:23:41.317Z,2
2018-11-22T07:24:43.337Z,2
2018-11-22T07:25:45.337Z,2
2018-11-22T07:26:47.643Z,2
2018-11-22T07:27:49.654Z,2
2018-11-22T07:28:51.659Z,2
2018-11-22T07:29:53.684Z,2
2018-11-22T07:30:55.695Z,2
2018-11-22T07:31:57.712Z,3
2018-11-22T07:32:59.719Z,3
2018-11-22T07:34:02.048Z,3
2018-11-22T07:35:04.053Z,3
2018-11-22T07:36:06.070Z,3
2018-11-22T07:37:08.083Z,3
2018-11-22T07:38:10.085Z,3
2018-11-22T07:39:12.103Z,3
2018-11-22T07:40:14.395Z,4
2018-11-22T07:41:16.406Z,4
2018-11-22T07:42:18.410Z,4
2018-11-22T07:43:20.425Z,4
2018-11-22T07:44:22.436Z,4
2018-11-22T07:45:24.447Z,5
2018-11-22T07:46:26.465Z,5
2018-11-22T07:47:28.472Z,5
2018-11-22T07:48:30.485Z,5
2018-11-22T07:49:32.502Z,5
2018-11-22T07:50:34.803Z,5
2018-11-22T07:51:36.812Z,5
2018-11-22T07:52:38.830Z,5
2018-11-22T07:53:40.837Z,4
2018-11-22T07:54:42.853Z,4
2018-11-22T07:55:44.875Z,4
2018-11-22T07:56:46.884Z,5
2018-11-22T07:57:48.890Z,5
2018-11-22T07:58:50.910Z,5
2018-11-22T07:59:52.920Z,5
2018-11-22T08:00:54.934Z,5
2018-11-22T08:01:56.949Z,5
2018-11-22T08:02:59.339Z,5
2018-11-22T08:04:01.346Z,5
2018-11-22T08:05:03.359Z,6
2018-11-22T08:06:05.376Z,6
2018-11-22T08:07:07.374Z,6
2018-11-22T08:08:09.668Z,6
2018-11-22T08:09:11.681Z,6
2018-11-22T08:10:13.688Z,6
2018-11-22T08:11:15.987Z,6
2018-11-22T08:12:18.659Z,6
2018-11-22T08:13:20.294Z,6
2018-11-22T08:14:22.302Z,6
2018-11-22T08:15:24.617Z,6
2018-11-22T08:16:26.912Z,6
2018-11-22T08:17:28.924Z,6
2018-11-22T08:18:30.942Z,7
2018-11-22T08:19:32.943Z,7
2018-11-22T08:20:34.955Z,7
2018-11-22T08:21:39.841Z,7
2018-11-22T08:22:41.863Z,7
2018-11-22T08:23:43.868Z,7
2018-11-22T08:24:46.160Z,7
2018-11-22T08:25:48.169Z,8
2018-11-22T08:26:50.177Z,8
2018-11-22T08:27:52.190Z,8
2018-11-22T08:28:54.210Z,8
2018-11-22T08:29:56.613Z,8
2018-11-22T08:30:59.010Z,8
2018-11-22T08:32:01.324Z,8
2018-11-22T08:33:03.338Z,9
2018-11-22T08:34:05.349Z,9
2018-11-22T08:35:07.751Z,9
2018-11-22T08:36:10.141Z,10
2018-11-22T08:37:12.153Z,9
2018-11-22T08:38:14.212Z,9
2018-11-22T08:39:16.229Z,9
2018-11-22T08:40:18.228Z,10
2018-11-22T08:41:20.244Z,9
2018-11-22T08:42:22.254Z,9
2018-11-22T08:43:24.258Z,10
2018-11-22T08:44:26.280Z,10
2018-11-22T08:45:28.284Z,10
2018-11-22T08:46:30.294Z,9
2018-11-22T08:47:32.306Z,10
2018-11-22T08:48:34.629Z,10
2018-11-22T08:49:36.632Z,10
2018-11-22T08:50:38.644Z,10
2018-11-22T08:51:40.651Z,10
2018-11-22T08:52:42.654Z,10
2018-11-22T08:53:44.976Z,10
2018-11-22T08:54:46.989Z,10
2018-11-22T08:55:48.996Z,10
2018-11-22T08:56:51.008Z,10
2018-11-22T08:57:53.026Z,11
2018-11-22T08:58:55.034Z,11
2018-11-22T08:59:57.339Z,11
2018-11-22T09:00:59.351Z,11
2018-11-22T09:02:01.375Z,10
2018-11-22T09:03:03.384Z,10
2018-11-22T09:04:05.391Z,11
2018-11-22T09:05:07.723Z,12
2018-11-22T09:06:09.744Z,12
2018-11-22T09:07:11.781Z,11
2018-11-22T09:08:14.109Z,11
2018-11-22T09:09:16.127Z,11
2018-11-22T09:10:18.164Z,12
2018-11-22T09:11:20.484Z,13
2018-11-22T09:12:22.536Z,13
2018-11-22T09:13:24.940Z,13
2018-11-22T09:14:26.976Z,13
2018-11-22T09:15:32.997Z,13
2018-11-22T09:16:35.026Z,13
2018-11-22T09:17:37.076Z,13
2018-11-22T09:18:39.095Z,13
2018-11-22T09:19:41.134Z,13
2018-11-22T09:20:43.161Z,13
2018-11-22T09:21:45.206Z,13
2018-11-22T09:22:47.518Z,13
2018-11-22T09:23:49.549Z,13
2018-11-22T09:24:51.590Z,13
2018-11-22T09:25:53.994Z,13
2018-11-22T09:26:56.049Z,13
2018-11-22T09:27:58.078Z,13
2018-11-22T09:29:00.379Z,13
2018-11-22T09:30:02.718Z,13
2018-11-22T09:31:04.809Z,13
2018-11-22T09:32:06.838Z,13
2018-11-22T09:33:09.211Z,13
2018-11-22T09:34:11.538Z,12
2018-11-22T09:35:14.632Z,13
2018-11-22T09:36:16.742Z,13
2018-11-22T09:37:19.425Z,12
2018-11-22T09:38:21.479Z,12
2018-11-22T09:39:23.498Z,12
2018-11-22T09:40:25.915Z,12
2018-11-22T09:41:27.961Z,13
2018-11-22T09:42:29.980Z,12
2018-11-22T09:43:32.026Z,12
2018-11-22T09:44:34.056Z,13
2018-11-22T09:45:36.392Z,12
2018-11-22T09:46:38.988Z,12
2018-11-22T09:47:41.025Z,13
2018-11-22T09:48:45.664Z,14
2018-11-22T09:49:48.606Z,13
2018-11-22T09:50:50.649Z,15
2018-11-22T09:51:52.675Z,14
2018-11-22T09:52:54.704Z,15
2018-11-22T09:53:56.720Z,14
2018-11-22T09:54:58.761Z,13
2018-11-22T09:56:00.779Z,13
2018-11-22T09:57:02.813Z,12
2018-11-22T09:58:04.895Z,12
2018-11-22T09:59:07.914Z,12
2018-11-22T10:00:10.261Z,13
2018-11-22T10:01:12.859Z,13
2018-11-22T10:02:14.893Z,14
2018-11-22T10:03:18.206Z,15
2018-11-22T10:04:20.248Z,15
2018-11-22T10:05:24.996Z,14
2018-11-22T10:06:27.371Z,14
2018-11-22T10:07:29.397Z,13
2018-11-22T10:08:33.066Z,14
2018-11-22T10:09:35.176Z,15
2018-11-22T10:10:37.509Z,16
2018-11-22T10:11:39.815Z,16
2018-11-22T10:12:43.149Z,17
2018-11-22T10:13:45.763Z,16
2018-11-22T10:14:47.789Z,14
2018-11-22T10:15:49.834Z,13
2018-11-22T10:16:52.385Z,13
2018-11-22T10:17:54.461Z,13
2018-11-22T10:18:56.477Z,14
2018-11-22T10:19:58.521Z,14
2018-11-22T10:21:00.544Z,14
2018-11-22T10:22:03.242Z,13
2018-11-22T10:23:05.275Z,13
2018-11-22T10:24:08.831Z,13
2018-11-22T10:25:10.879Z,13
2018-11-22T10:26:12.913Z,13
2018-11-22T10:27:15.538Z,13
2018-11-22T10:28:17.566Z,13
2018-11-22T10:29:21.850Z,13
2018-11-22T10:30:26.687Z,14
2018-11-22T10:31:29.896Z,14
2018-11-22T10:32:31.956Z,13
2018-11-22T10:33:34.639Z,14
2018-11-22T10:34:36.675Z,14
2018-11-22T10:35:38.727Z,14
2018-11-22T10:36:40.760Z,14
2018-11-22T10:37:44.300Z,14
2018-11-22T10:38:46.362Z,13
2018-11-22T10:39:48.397Z,13
2018-11-22T10:40:50.431Z,14
2018-11-22T10:41:52.482Z,14
2018-11-22T10:42:54.818Z,14
2018-11-22T10:43:56.831Z,14
2018-11-22T10:44:58.879Z,15
2018-11-22T10:46:00.904Z,15
2018-11-22T10:47:03.602Z,14
2018-11-22T10:48:05.639Z,14
2018-11-22T10:49:08.446Z,14
2018-11-22T10:50:10.763Z,13
2018-11-22T10:51:12.798Z,13
2018-11-22T10:52:14.842Z,13
2018-11-22T10:53:17.263Z,13
2018-11-22T10:54:19.298Z,13
2018-11-22T10:55:21.333Z,13
2018-11-22T10:56:23.371Z,13
2018-11-22T10:57:25.664Z,13
2018-11-22T10:58:27.706Z,13
2018-11-22T10:59:30.018Z,13
2018-11-22T11:00:32.342Z,13
2018-11-22T11:01:34.359Z,14
2018-11-22T11:02:36.399Z,14
2018-11-22T11:03:38.713Z,13
2018-11-22T11:04:41.019Z,13
2018-11-22T11:05:43.623Z,13
2018-11-22T11:06:45.636Z,13
2018-11-22T11:07:47.661Z,13
2018-11-22T11:08:50.570Z,13
2018-11-22T11:09:52.648Z,13
2018-11-22T11:10:54.672Z,13
2018-11-22T11:11:56.704Z,13
2018-11-22T11:12:59.021Z,13
2018-11-22T11:14:01.054Z,13
2018-11-22T11:15:03.555Z,13
2018-11-22T11:16:05.874Z,13
2018-11-22T11:17:07.892Z,12
2018-11-22T11:18:10.628Z,12
2018-11-22T11:19:12.654Z,12
2018-11-22T11:20:14.687Z,12
2018-11-22T11:21:16.732Z,12
2018-11-22T11:22:19.038Z,12
2018-11-22T11:23:21.088Z,12
2018-11-22T11:24:25.027Z,12
2018-11-22T11:25:27.408Z,13
2018-11-22T11:26:29.820Z,12
2018-11-22T11:27:31.859Z,12
2018-11-22T11:28:33.880Z,12
2018-11-22T11:29:35.905Z,12
2018-11-22T11:30:37.938Z,11
2018-11-22T11:31:40.272Z,11
2018-11-22T11:32:42.301Z,11
2018-11-22T11:33:44.361Z,11
2018-11-22T11:34:46.698Z,11
2018-11-22T11:35:48.769Z,11
2018-11-22T11:36:51.099Z,11
2018-11-22T11:37:53.129Z,11
2018-11-22T11:38:55.536Z,11
2018-11-22T11:40:02.866Z,11
2018-11-22T11:41:04.898Z,11
2018-11-22T11:42:06.945Z,11
2018-11-22T11:43:09.262Z,12
2018-11-22T11:44:11.287Z,11
2018-11-22T11:45:13.318Z,12
2018-11-22T11:46:15.339Z,12
2018-11-22T11:47:17.652Z,11
2018-11-22T11:48:19.700Z,12
2018-11-22T11:49:21.728Z,12
2018-11-22T11:50:23.747Z,12
2018-11-22T11:51:26.360Z,12
2018-11-22T11:52:28.392Z,12
2018-11-22T11:53:42.876Z,12
2018-11-22T11:54:45.184Z,12
2018-11-22T11:55:47.481Z,12
2018-11-22T11:56:49.524Z,11
2018-11-22T11:57:51.559Z,12
2018-11-22T11:58:54.279Z,11
2018-11-22T11:59:56.676Z,11
2018-11-22T12:00:58.713Z,10
2018-11-22T12:02:00.740Z,10
2018-11-22T12:03:03.433Z,10
2018-11-22T12:04:05.486Z,10
2018-11-22T12:05:07.506Z,10
2018-11-22T12:06:09.552Z,10
2018-11-22T12:07:11.872Z,10
2018-11-22T12:08:13.976Z,10
2018-11-22T12:09:15.999Z,10
2018-11-22T12:10:18.112Z,9
2018-11-22T12:11:20.129Z,9
2018-11-22T12:12:22.172Z,9
2018-11-22T12:13:24.572Z,9
2018-11-22T12:14:26.891Z,10
2018-11-22T12:15:28.930Z,10
2018-11-22T12:16:31.235Z,10
2018-11-22T12:17:33.264Z,10
2018-11-22T12:18:39.012Z,10
2018-11-22T12:19:41.045Z,10
2018-11-22T12:20:43.080Z,10
2018-11-22T12:21:45.800Z,10
2018-11-22T12:22:48.111Z,10
2018-11-22T12:23:50.129Z,10
2018-11-22T12:24:52.838Z,10
2018-11-22T12:25:55.147Z,10
2018-11-22T12:26:57.183Z,10
2018-11-22T12:27:59.217Z,9
2018-11-22T12:29:01.513Z,9
2018-11-22T12:30:03.853Z,9
2018-11-22T12:31:08.649Z,8
2018-11-22T12:32:10.703Z,7
2018-11-22T12:33:12.735Z,7
2018-11-22T12:34:15.166Z,7
2018-11-22T12:35:17.204Z,7
2018-11-22T12:36:20.189Z,8
2018-11-22T12:37:22.532Z,8
2018-11-22T12:38:24.549Z,8
2018-11-22T12:39:26.864Z,8
2018-11-22T12:40:29.174Z,8
2018-11-22T12:41:31.612Z,8
2018-11-22T12:42:34.020Z,8
2018-11-22T12:43:36.066Z,8
2018-11-22T12:44:38.382Z,9
2018-11-22T12:45:40.685Z,8
2018-11-22T12:46:43.016Z,8
2018-11-22T12:47:45.437Z,8
2018-11-22T12:48:47.466Z,8
2018-11-22T12:49:49.491Z,8
2018-11-22T12:50:51.535Z,8
2018-11-22T12:51:53.568Z,7
2018-11-22T12:52:55.609Z,7
2018-11-22T12:53:57.639Z,7
2018-11-22T12:54:59.937Z,7
2018-11-22T12:56:01.970Z,7
2018-11-22T12:57:04.578Z,7
2018-11-22T12:58:06.676Z,7
2018-11-22T12:59:08.727Z,6
2018-11-22T13:00:10.762Z,6
2018-11-22T13:01:13.340Z,6
2018-11-22T13:02:20.767Z,6
2018-11-22T13:03:23.183Z,6
2018-11-22T13:04:25.499Z,5
2018-11-22T13:05:27.523Z,5
2018-11-22T13:06:30.152Z,5
2018-11-22T13:07:32.184Z,4
2018-11-22T13:08:34.780Z,4
2018-11-22T13:09:37.103Z,4
2018-11-22T13:10:39.119Z,4
2018-11-22T13:11:48.212Z,4
2018-11-22T13:12:50.659Z,4
2018-11-22T13:13:52.980Z,5
2018-11-22T13:14:55.013Z,5
2018-11-22T13:15:57.342Z,5
2018-11-22T13:16:59.696Z,5
2018-11-22T13:18:02.297Z,5
2018-11-22T13:19:04.623Z,5
2018-11-22T13:20:06.639Z,5
2018-11-22T13:21:08.676Z,5
2018-11-22T13:22:10.717Z,5
2018-11-22T13:23:12.748Z,5
2018-11-22T13:24:14.830Z,5
2018-11-22T13:25:16.871Z,5
2018-11-22T13:26:18.910Z,5
2018-11-22T13:27:20.940Z,5
2018-11-22T13:28:23.245Z,5
2018-11-22T13:29:25.659Z,5
2018-11-22T13:30:28.289Z,5
2018-11-22T13:31:30.690Z,5
2018-11-22T13:32:32.745Z,5
2018-11-22T13:33:35.073Z,4
2018-11-22T13:34:37.441Z,4
2018-11-22T13:35:39.787Z,4
2018-11-22T13:36:42.484Z,4
2018-11-22T13:37:44.795Z,4
2018-11-22T13:38:47.584Z,4
2018-11-22T13:39:49.918Z,4
2018-11-22T13:40:51.945Z,4
2018-11-22T13:41:53.979Z,4
2018-11-22T13:42:56.289Z,4
2018-11-22T13:43:58.691Z,4
2018-11-22T13:45:00.740Z,4
2018-11-22T13:46:03.393Z,4
2018-11-22T13:47:05.721Z,4
2018-11-22T13:48:08.030Z,3
2018-11-22T13:49:10.363Z,3
2018-11-22T13:50:12.399Z,3
2018-11-22T13:51:14.419Z,3
2018-11-22T13:52:16.467Z,3
2018-11-22T13:53:21.925Z,3
2018-11-22T13:54:24.287Z,3
2018-11-22T13:55:26.333Z,3
2018-11-22T13:56:29.049Z,3
2018-11-22T13:57:31.073Z,3
2018-11-22T13:58:33.878Z,3
2018-11-22T13:59:35.908Z,3
2018-11-22T14:00:37.945Z,3
2018-11-22T14:01:40.282Z,3
2018-11-22T14:02:42.309Z,3
2018-11-22T14:03:44.358Z,3
2018-11-22T14:04:46.373Z,3
2018-11-22T14:05:48.798Z,3
2018-11-22T14:06:50.840Z,3
2018-11-22T14:07:53.269Z,3
2018-11-22T14:08:55.612Z,3
2018-11-22T14:09:57.638Z,3
2018-11-22T14:11:00.366Z,3
2018-11-22T14:12:02.667Z,3
2018-11-22T14:13:05.683Z,3
2018-11-22T14:14:07.713Z,2
2018-11-22T14:15:09.747Z,2
2018-11-22T14:16:12.081Z,2
2018-11-22T14:17:14.102Z,2
2018-11-22T14:18:16.164Z,2
2018-11-22T14:19:18.200Z,2
2018-11-22T14:20:20.598Z,2
2018-11-22T14:21:23.001Z,2
2018-11-22T14:22:25.317Z,2
2018-11-22T14:23:27.909Z,2
2018-11-22T14:24:29.928Z,1
2018-11-22T14:25:32.637Z,1
2018-11-22T14:26:34.948Z,1
2018-11-22T14:27:36.977Z,1
2018-11-22T14:28:39.298Z,1
2018-11-22T14:29:41.613Z,1
2018-11-22T14:30:43.631Z,1
2018-11-22T14:31:45.937Z,1
2018-11-22T14:32:48.346Z,1
2018-11-22T14:33:50.673Z,1
2018-11-22T14:34:52.721Z,1
2018-11-22T14:35:55.725Z,1
2018-11-22T14:36:57.744Z,1
2018-11-22T14:38:00.170Z,1
2018-11-22T14:39:02.524Z,1
2018-11-22T14:40:04.849Z,1
2018-11-22T14:41:07.164Z,1
2018-11-22T14:42:09.545Z,1
2018-11-22T14:43:11.566Z,1
2018-11-22T14:44:13.600Z,1
2018-11-22T14:45:15.903Z,0
2018-11-22T14:46:17.951Z,0
2018-11-22T14:47:19.979Z,0
2018-11-22T14:48:22.450Z,0
2018-11-22T14:49:24.491Z,0
2018-11-22T14:50:26.507Z,0
2018-11-22T14:51:28.546Z,0
2018-11-22T14:52:30.577Z,0
2018-11-22T14:53:32.617Z,0
2018-11-22T14:54:35.190Z,0
2018-11-22T14:55:37.232Z,0
2018-11-22T14:56:39.843Z,0
2018-11-22T14:57:42.256Z,0
2018-11-22T14:58:44.301Z,0
2018-11-22T14:59:46.317Z,0
2018-11-22T15:00:48.486Z,0
2018-11-22T15:01:50.529Z,0
2018-11-22T15:02:52.840Z,0
2018-11-22T15:03:55.137Z,0
2018-11-22T15:04:57.173Z,0
2018-11-22T15:05:59.202Z,0
2018-11-22T15:07:01.244Z,0
2018-11-22T15:08:03.583Z,0
2018-11-22T15:09:05.618Z,0
2018-11-22T15:10:07.644Z,0
2018-11-22T15:11:09.691Z,0
2018-11-22T15:12:11.715Z,0